createdAt,value
2023-05-14T00:02:34.305Z,8.15
2023-05-14T00:07:37.308Z,8.09
2023-05-14T00:12:54.257Z,8.04
2023-05-14T00:18:21.434Z,7.98
2023-05-14T00:24:11.092Z,7.92
2023-05-14T00:29:32.438Z,7.86
2023-05-14T00:34:48.193Z,7.82
2023-05-14T00:39:55.435Z,7.77
2023-05-14T00:45:03.760Z,7.74
2023-05-14T00:50:21.561Z,7.70
2023-05-14T00:55:33.053Z,7.63
2023-05-14T01:00:36.256Z,7.55
2023-05-14T01:06:00.912Z,7.48
2023-05-14T01:11:52.835Z,7.42
2023-05-14T01:17:11.826Z,7.33
2023-05-14T01:22:19.764Z,7.25
2023-05-14T01:27:23.488Z,7.17
2023-05-14T01:32:35.841Z,7.10
2023-05-14T01:37:49.705Z,7.03
2023-05-14T01:43:12.407Z,6.98
2023-05-14T01:48:22.753Z,6.93
2023-05-14T01:53:25.275Z,6.91
2023-05-14T01:58:38.021Z,6.88
2023-05-14T02:03:40.295Z,6.84
2023-05-14T02:08:51.770Z,6.81
2023-05-14T02:13:54.511Z,6.78
2023-05-14T02:18:59.844Z,6.73
2023-05-14T02:24:02.293Z,6.69
2023-05-14T02:29:08.559Z,6.65
2023-05-14T02:34:42.775Z,6.59
2023-05-14T02:40:37.933Z,6.53
2023-05-14T02:46:00.502Z,6.46
2023-05-14T02:51:26.863Z,6.40
2023-05-14T02:56:44.694Z,6.36
2023-05-14T03:02:19.584Z,6.38
2023-05-14T03:07:39.291Z,6.39
2023-05-14T03:13:20.860Z,6.34
2023-05-14T03:18:41.386Z,6.28
2023-05-14T03:23:53.769Z,6.24
2023-05-14T03:28:58.622Z,6.26
2023-05-14T03:34:01.376Z,6.38
2023-05-14T03:39:23.865Z,6.53
2023-05-14T03:44:54.676Z,6.65
2023-05-14T03:50:11.920Z,6.79
2023-05-14T03:55:26.400Z,6.83
2023-05-14T04:00:57.716Z,6.87
2023-05-14T04:06:05.197Z,6.93
2023-05-14T04:11:38.995Z,6.94
2023-05-14T04:17:20.744Z,6.99
2023-05-14T04:23:07.854Z,7.07
2023-05-14T04:28:55.616Z,7.17
2023-05-14T04:34:32.260Z,7.32
2023-05-14T04:39:47.219Z,7.50
2023-05-14T04:45:08.645Z,7.69
2023-05-14T04:50:46.972Z,7.87
2023-05-14T04:55:49.213Z,8.05
2023-05-14T05:01:03.685Z,8.31
2023-05-14T05:06:07.842Z,8.57
2023-05-14T05:11:13.292Z,8.79
2023-05-14T05:16:15.800Z,9.01
2023-05-14T05:21:18.726Z,9.25
2023-05-14T05:26:26.838Z,9.53
2023-05-14T05:31:39.456Z,9.83
2023-05-14T05:36:41.381Z,10.13
2023-05-14T05:41:49.328Z,10.43
2023-05-14T05:46:58.165Z,10.77
2023-05-14T05:52:06.483Z,11.09
2023-05-14T05:57:18.848Z,11.41
2023-05-14T06:02:21.227Z,11.70
2023-05-14T06:07:25.828Z,11.98
2023-05-14T06:12:40.679Z,12.28
2023-05-14T06:17:43.034Z,12.60
2023-05-14T06:22:48.172Z,12.89
2023-05-14T06:27:50.474Z,13.16
2023-05-14T06:32:53.235Z,13.40
2023-05-14T06:37:55.364Z,13.62
2023-05-14T06:42:58.264Z,13.77
2023-05-14T06:48:10.660Z,13.89
2023-05-14T06:53:16.814Z,14.10
2023-05-14T06:58:34.506Z,14.33
2023-05-14T07:03:36.731Z,14.49
2023-05-14T07:08:38.854Z,14.64
2023-05-14T07:13:41.928Z,14.81
2023-05-14T07:18:45.578Z,14.97
2023-05-14T07:23:47.977Z,15.15
2023-05-14T07:28:50.533Z,15.35
2023-05-14T07:34:11.820Z,15.55
2023-05-14T07:39:13.909Z,15.69
2023-05-14T07:44:16.422Z,15.81
2023-05-14T07:49:18.830Z,15.94
2023-05-14T07:54:26.744Z,16.11
2023-05-14T07:59:48.781Z,16.24
2023-05-14T08:04:52.239Z,16.47
2023-05-14T08:09:54.195Z,16.74
2023-05-14T08:14:57.057Z,16.96
2023-05-14T08:19:59.063Z,17.21
2023-05-14T08:25:03.582Z,17.44
2023-05-14T08:30:07.518Z,17.48
2023-05-14T08:35:19.468Z,17.67
2023-05-14T08:40:22.224Z,17.97
2023-05-14T08:45:34.519Z,18.11
2023-05-14T08:50:49.278Z,18.28
2023-05-14T08:55:54.850Z,18.56
2023-05-14T09:00:57.509Z,18.70
2023-05-14T09:06:04.948Z,18.79
2023-05-14T09:11:07.200Z,18.92
2023-05-14T09:16:10.060Z,19.03
2023-05-14T09:21:16.127Z,19.09
2023-05-14T09:26:26.252Z,19.13
2023-05-14T09:31:33.269Z,19.24
2023-05-14T09:36:35.996Z,19.37
2023-05-14T09:41:43.193Z,19.46
2023-05-14T09:46:50.875Z,19.54
2023-05-14T09:51:58.224Z,19.56
2023-05-14T09:57:01.032Z,19.62
2023-05-14T10:02:22.278Z,19.81
2023-05-14T10:07:58.336Z,19.94
2023-05-14T10:13:05.691Z,20.17
2023-05-14T10:18:12.574Z,20.54
2023-05-14T10:23:17.977Z,20.79
2023-05-14T10:28:29.910Z,20.99
2023-05-14T10:33:47.191Z,21.10
2023-05-14T10:38:57.322Z,21.28
2023-05-14T10:43:59.718Z,21.44
2023-05-14T10:49:03.150Z,21.54
2023-05-14T10:54:08.931Z,21.61
2023-05-14T10:59:12.320Z,21.66
2023-05-14T11:04:24.188Z,21.75
2023-05-14T11:09:29.356Z,22.00
2023-05-14T11:14:31.863Z,22.17
2023-05-14T11:19:34.412Z,22.36
2023-05-14T11:24:36.551Z,22.60
2023-05-14T11:29:48.900Z,22.74
2023-05-14T11:34:54.117Z,22.69
2023-05-14T11:40:00.112Z,22.70
2023-05-14T11:45:02.847Z,22.80
2023-05-14T11:50:09.762Z,22.83
2023-05-14T11:55:18.489Z,22.70
2023-05-14T12:00:25.227Z,22.72
2023-05-14T12:05:30.040Z,22.70
2023-05-14T12:10:42.521Z,22.70
2023-05-14T12:15:47.110Z,22.74
2023-05-14T12:20:51.255Z,22.67
2023-05-14T12:25:53.266Z,22.48
2023-05-14T12:30:57.606Z,22.44
2023-05-14T12:41:09.044Z,22.46
2023-05-14T12:46:11.071Z,22.35
2023-05-14T12:51:13.904Z,22.34
2023-05-14T12:56:16.540Z,22.32
2023-05-14T13:01:41.195Z,22.37
2023-05-14T13:06:53.400Z,22.44
2023-05-14T13:12:03.589Z,22.52
2023-05-14T13:17:08.747Z,22.75
2023-05-14T13:22:14.476Z,22.84
2023-05-14T13:27:16.559Z,22.83
2023-05-14T13:32:19.046Z,22.70
2023-05-14T13:37:21.153Z,22.59
2023-05-14T13:42:23.773Z,22.53
2023-05-14T13:47:28.968Z,22.42
2023-05-14T13:52:34.624Z,22.34
2023-05-14T13:57:37.637Z,22.32
2023-05-14T14:02:42.611Z,22.26
2023-05-14T14:07:50.465Z,22.19
2023-05-14T14:12:55.821Z,22.10
2023-05-14T14:17:57.791Z,22.02
2023-05-14T14:23:00.189Z,21.94
2023-05-14T14:28:05.492Z,21.85
2023-05-14T14:33:07.834Z,21.73
2023-05-14T14:38:10.410Z,21.60
2023-05-14T14:43:21.741Z,21.45
2023-05-14T14:48:37.451Z,21.32
2023-05-14T14:53:40.801Z,21.19
2023-05-14T14:58:42.952Z,21.06
2023-05-14T15:03:45.944Z,20.98
2023-05-14T15:08:48.364Z,20.86
2023-05-14T15:13:50.761Z,20.75
2023-05-14T15:18:58.855Z,20.72
2023-05-14T15:24:04.581Z,20.64
2023-05-14T15:29:06.543Z,20.55
2023-05-14T15:34:11.576Z,20.46
2023-05-14T15:39:13.976Z,20.32
2023-05-14T15:44:19.532Z,20.20
2023-05-14T15:49:23.903Z,20.02
2023-05-14T15:54:27.719Z,19.84
2023-05-14T15:59:30.695Z,19.70
2023-05-14T16:04:32.646Z,19.59
2023-05-14T16:09:35.155Z,19.52
2023-05-14T16:14:38.307Z,19.43
2023-05-14T16:19:41.277Z,19.31
2023-05-14T16:24:44.887Z,19.17
2023-05-14T16:29:53.084Z,19.03
2023-05-14T16:34:58.222Z,18.88
2023-05-14T16:40:00.301Z,18.73
2023-05-14T16:45:02.892Z,18.59
2023-05-14T16:50:06.158Z,18.46
2023-05-14T16:55:09.300Z,18.29
2023-05-14T17:00:12.184Z,18.07
2023-05-14T17:05:15.008Z,17.83
2023-05-14T17:10:26.812Z,17.62
2023-05-14T17:15:29.573Z,17.43
2023-05-14T17:20:31.606Z,17.28
2023-05-14T17:25:33.847Z,17.13
2023-05-14T17:30:35.814Z,17.01
2023-05-14T17:35:38.057Z,16.87
2023-05-14T17:40:40.918Z,16.74
2023-05-14T17:45:53.884Z,16.65
2023-05-14T17:51:00.016Z,16.55
2023-05-14T17:56:02.914Z,16.37
2023-05-14T18:01:06.183Z,16.10
2023-05-14T18:06:08.751Z,15.79
2023-05-14T18:11:11.027Z,15.54
2023-05-14T18:16:13.494Z,15.36
2023-05-14T18:21:16.078Z,15.22
2023-05-14T18:26:22.241Z,15.10
2023-05-14T18:31:27.975Z,14.96
2023-05-14T18:36:30.629Z,14.82
2023-05-14T18:41:32.797Z,14.64
2023-05-14T18:46:34.812Z,14.52
2023-05-14T18:51:36.803Z,14.45
2023-05-14T18:56:41.798Z,14.41
2023-05-14T19:01:44.385Z,14.38
2023-05-14T19:06:47.072Z,14.32
2023-05-14T19:11:49.235Z,14.23
2023-05-14T19:17:02.690Z,14.18
2023-05-14T19:22:05.309Z,14.14
2023-05-14T19:27:12.936Z,14.10
2023-05-14T19:32:17.958Z,14.06
2023-05-14T19:37:20.414Z,14.00
2023-05-14T19:42:24.937Z,13.96
2023-05-14T19:47:33.388Z,13.92
2023-05-14T19:52:42.806Z,13.88
2023-05-14T19:57:50.912Z,13.82
2023-05-14T20:03:00.002Z,13.76
2023-05-14T20:08:06.663Z,13.68
2023-05-14T20:13:08.733Z,13.60
2023-05-14T20:18:11.245Z,13.52
2023-05-14T20:23:13.112Z,13.44
2023-05-14T20:28:16.324Z,13.34
2023-05-14T20:33:18.412Z,13.23
2023-05-14T20:38:21.848Z,13.11
2023-05-14T20:43:24.167Z,12.96
2023-05-14T20:48:26.455Z,12.81
2023-05-14T20:53:28.844Z,12.68
2023-05-14T20:58:31.318Z,12.59
2023-05-14T21:03:34.700Z,12.52
2023-05-14T21:09:04.040Z,12.46
2023-05-14T21:14:16.998Z,12.43
2023-05-14T21:19:19.437Z,12.43
2023-05-14T21:24:24.149Z,12.42
2023-05-14T21:29:26.476Z,12.39
2023-05-14T21:34:32.095Z,12.35
2023-05-14T21:39:40.049Z,12.30
2023-05-14T21:44:43.070Z,12.27
2023-05-14T21:49:53.906Z,12.25
2023-05-14T21:54:56.196Z,12.22
2023-05-14T22:00:01.431Z,12.19
2023-05-14T22:05:09.645Z,12.15
2023-05-14T22:10:13.584Z,12.14
2023-05-14T22:15:16.107Z,12.12
2023-05-14T22:20:25.775Z,12.11
2023-05-14T22:25:31.229Z,12.09
2023-05-14T22:30:33.461Z,12.08
2023-05-14T22:35:47.777Z,12.07
2023-05-14T22:41:03.340Z,12.09
2023-05-14T22:46:06.242Z,12.11
2023-05-14T22:51:18.080Z,12.13
2023-05-14T22:56:38.271Z,12.16
2023-05-14T23:01:48.720Z,12.17
2023-05-14T23:06:51.028Z,12.18
2023-05-14T23:11:56.690Z,12.21
2023-05-14T23:17:08.890Z,12.22
2023-05-14T23:22:14.540Z,12.26
2023-05-14T23:27:37.156Z,12.28
2023-05-14T23:32:39.777Z,12.31
2023-05-14T23:37:47.410Z,12.33
2023-05-14T23:42:57.360Z,12.36
2023-05-14T23:48:23.177Z,12.39
2023-05-14T23:53:26.159Z,12.40
2023-05-14T23:58:31.255Z,12.40
